Time;durP1;ratioP1;P1;durP2;ratioP2;P2;SDS_P1;SDS_P2;PMS_P1;PMS_P2;Temp;Humidity;BMP_temperature;BMP_pressure;BME280_temperature;BME280_humidity;BME280_pressure;Samples;Min_cycle;Max_cycle;Signal;HPM_P1;HPM_P2
2023/01/03 00:00:31;;;;;;;2.87;1.87;;;;;;;11.29;nan;100654.84;6140817;23;20232;-88
2023/01/03 00:02:56;;;;;;;1.50;1.40;;;;;;;11.29;nan;100659.25;6140834;23;20191;-85
2023/01/03 00:05:22;;;;;;;2.17;1.80;;;;;;;11.27;nan;100659.31;6140445;23;20199;-87
2023/01/03 00:07:47;;;;;;;4.70;2.53;;;;;;;11.25;nan;100658.53;6141653;23;20171;-84
2023/01/03 00:10:12;;;;;;;3.37;2.30;;;;;;;11.26;nan;100659.38;6141633;23;20195;-87
2023/01/03 00:12:39;;;;;;;4.53;2.87;;;;;;;11.25;nan;100658.53;6140896;23;20235;-84
2023/01/03 00:15:05;;;;;;;3.72;2.47;;;;;;;11.24;nan;100654.22;6141993;23;20175;-84
2023/01/03 00:17:30;;;;;;;2.38;2.13;;;;;;;11.22;nan;100650.81;6141459;23;20394;-86
2023/01/03 00:19:56;;;;;;;3.60;2.60;;;;;;;11.22;nan;100650.81;6141483;23;20202;-85
2023/01/03 00:22:21;;;;;;;3.80;2.67;;;;;;;11.22;nan;100647.31;6141927;23;20191;-86
2023/01/03 00:24:48;;;;;;;2.80;1.80;;;;;;;11.19;nan;100652.75;6140859;23;20190;-84
2023/01/03 00:27:15;;;;;;;3.63;2.28;;;;;;;11.18;nan;100644.00;6140544;23;20179;-88
2023/01/03 00:29:41;;;;;;;2.55;2.30;;;;;;;11.16;nan;100648.47;6141162;23;20172;-85
2023/01/03 00:32:07;;;;;;;3.10;2.80;;;;;;;11.15;nan;100652.06;6140563;23;20441;-84
2023/01/03 00:34:33;;;;;;;2.90;2.30;;;;;;;11.14;nan;100658.22;6140427;23;20172;-87
2023/01/03 00:36:59;;;;;;;3.28;2.38;;;;;;;11.12;nan;100652.19;6140367;23;20182;-85
2023/01/03 00:39:25;;;;;;;3.93;1.90;;;;;;;11.11;nan;100655.75;6140696;23;20179;-85
2023/01/03 00:41:51;;;;;;;1.75;1.50;;;;;;;11.11;nan;100649.63;6140661;23;20222;-87
2023/01/03 00:44:17;;;;;;;2.90;2.03;;;;;;;11.10;nan;100654.06;6141220;23;20175;-85
2023/01/03 00:46:43;;;;;;;2.33;2.10;;;;;;;11.08;nan;100648.00;6141064;23;20443;-84
2023/01/03 00:49:09;;;;;;;4.70;2.60;;;;;;;11.05;nan;100656.91;6136557;23;20183;-84
2023/01/03 00:51:36;;;;;;;4.47;3.40;;;;;;;11.04;nan;100649.06;6180990;23;20272;-86
2023/01/03 00:54:04;;;;;;;2.83;2.55;;;;;;;10.98;nan;100649.38;6132748;23;20183;-84
2023/01/03 00:56:37;;;;;;;2.83;2.63;;;;;;;10.89;nan;100648.06;6132332;23;20199;-84
2023/01/03 00:59:04;;;;;;;3.45;2.55;;;;;;;10.81;nan;100650.19;6140269;23;20178;-85
2023/01/03 01:01:33;;;;;;;2.65;2.30;;;;;;;10.73;nan;100654.97;6139084;23;20206;-84
2023/01/03 01:04:04;;;;;;;2.97;2.50;;;;;;;10.69;nan;100648.97;6138455;23;20776;-84
2023/01/03 01:06:45;;;;;;;5.00;1.90;;;;;;;10.64;nan;100653.63;6138023;23;20217;-85
2023/01/03 01:09:14;;;;;;;2.58;1.70;;;;;;;10.58;nan;100646.88;6139115;23;20163;-86
2023/01/03 01:11:40;;;;;;;3.30;2.08;;;;;;;10.59;nan;100655.63;6137899;23;20252;-84
2023/01/03 01:14:18;;;;;;;4.20;3.17;;;;;;;10.60;nan;100667.81;6139223;23;20168;-86
2023/01/03 01:16:53;;;;;;;2.40;2.05;;;;;;;10.59;nan;100660.88;6139812;23;20407;-84
2023/01/03 01:19:22;;;;;;;5.80;3.15;;;;;;;10.53;nan;100662.03;6139745;23;20159;-84
2023/01/03 01:21:48;;;;;;;3.28;2.97;;;;;;;10.44;nan;100664.22;6140464;23;20180;-84
2023/01/03 01:24:14;;;;;;;3.47;3.17;;;;;;;10.36;nan;100670.66;6140940;23;20237;-87
2023/01/03 01:26:39;;;;;;;3.58;2.53;;;;;;;10.34;nan;100659.38;6140337;23;20171;-84
2023/01/03 01:29:06;;;;;;;4.30;3.87;;;;;;;10.35;nan;100661.09;6140419;23;20492;-85
2023/01/03 01:31:31;;;;;;;4.72;3.05;;;;;;;10.36;nan;100665.41;6139690;23;20194;-87
2023/01/03 01:33:57;;;;;;;3.00;2.73;;;;;;;10.40;nan;100676.63;6139269;23;20152;-85
2023/01/03 01:36:28;;;;;;;3.27;2.97;;;;;;;10.45;nan;100671.16;6138772;23;20152;-85
2023/01/03 01:39:05;;;;;;;3.47;2.40;;;;;;;10.48;nan;100671.88;6135801;23;20175;-88
2023/01/03 01:44:42;;;;;;;6.25;3.17;;;;;;;10.48;nan;100673.66;6131403;23;20160;-84
2023/01/03 01:47:22;;;;;;;6.15;3.38;;;;;;;10.43;nan;100666.00;6128668;23;20253;-85
2023/01/03 01:49:53;;;;;;;5.40;3.10;;;;;;;10.41;nan;100671.31;6128859;23;20170;-84
2023/01/03 01:52:20;;;;;;;4.13;3.28;;;;;;;10.44;nan;100682.59;6128644;23;20310;-84
2023/01/03 01:54:50;;;;;;;4.28;2.53;;;;;;;10.45;nan;100676.41;6127852;23;20183;-83
2023/01/03 01:57:18;;;;;;;3.38;2.50;;;;;;;10.46;nan;100678.97;6126704;23;20180;-85
2023/01/03 01:59:44;;;;;;;2.90;2.60;;;;;;;10.46;nan;100675.50;6127579;23;20164;-84
2023/01/03 02:02:11;;;;;;;3.08;2.72;;;;;;;10.46;nan;100681.59;6128062;23;20168;-85
2023/01/03 02:04:39;;;;;;;3.20;2.60;;;;;;;10.47;nan;100685.91;6125691;23;20152;-85
2023/01/03 02:07:05;;;;;;;4.45;3.20;;;;;;;10.49;nan;100683.25;6125649;23;20179;-84
2023/01/03 02:09:33;;;;;;;4.47;3.28;;;;;;;10.46;nan;100683.38;6126001;23;20156;-85
2023/01/03 02:15:13;;;;;;;3.38;2.60;;;;;;;10.44;nan;100687.84;6130800;23;20655;-84
2023/01/03 02:18:10;;;;;;;2.83;2.40;;;;;;;10.41;nan;100684.44;6128213;23;20227;-84
2023/01/03 02:20:47;;;;;;;4.90;2.63;;;;;;;10.37;nan;100680.25;6131115;23;20181;-84
2023/01/03 02:23:34;;;;;;;5.45;2.50;;;;;;;10.34;nan;100687.41;6130384;23;20345;-86
2023/01/03 02:26:37;;;;;;;4.28;3.88;;;;;;;10.31;nan;100693.63;6127380;23;20212;-84
2023/01/03 02:29:17;;;;;;;2.35;2.00;;;;;;;10.27;nan;100699.97;6125098;23;20216;-84
2023/01/03 02:31:51;;;;;;;2.53;2.30;;;;;;;10.27;nan;100693.84;6123712;23;20272;-84
2023/01/03 02:34:29;;;;;;;5.55;2.90;;;;;;;10.26;nan;100692.13;6122397;23;20602;-84
2023/01/03 02:37:05;;;;;;;6.80;2.40;;;;;;;10.26;nan;100698.25;6121154;23;20719;-84
2023/01/03 02:39:49;;;;;;;2.25;2.05;;;;;;;10.25;nan;100695.69;6122856;23;20517;-84
2023/01/03 02:45:20;;;;;;;4.07;2.35;;;;;;;10.18;nan;100697.75;6125301;23;20189;-86
2023/01/03 02:47:59;;;;;;;4.35;2.30;;;;;;;10.17;nan;100701.25;6123826;23;20185;-84
2023/01/03 02:50:29;;;;;;;2.70;2.00;;;;;;;10.17;nan;100699.47;6127704;23;20188;-84
2023/01/03 02:53:01;;;;;;;2.85;2.08;;;;;;;10.18;nan;100697.75;6125885;23;20484;-87
2023/01/03 02:55:30;;;;;;;3.00;2.50;;;;;;;10.17;nan;100688.97;6128522;23;20192;-85
2023/01/03 02:58:03;;;;;;;2.92;2.15;;;;;;;10.17;nan;100682.88;6126003;23;20193;-84
2023/01/03 03:00:31;;;;;;;2.10;1.85;;;;;;;10.15;nan;100684.72;6126175;23;20721;-84
2023/01/03 03:03:08;;;;;;;2.67;2.05;;;;;;;10.11;nan;100691.03;6125061;23;20615;-85
2023/01/03 03:05:44;;;;;;;3.97;2.70;;;;;;;10.14;nan;100688.28;6123992;23;20668;-86
2023/01/03 03:08:10;;;;;;;2.50;2.30;;;;;;;10.16;nan;100697.78;6124799;23;20243;-84
2023/01/03 03:13:57;;;;;;;2.50;1.90;;;;;;;10.23;nan;100703.59;6121973;23;20197;-84
2023/01/03 03:25:21;;;;;;;4.45;2.03;;;;;;;10.30;nan;100689.31;6129352;23;20166;-84
2023/01/03 03:30:38;;;;;;;3.05;2.40;;;;;;;10.32;nan;100703.25;6137050;23;20676;-86
2023/01/03 03:33:08;;;;;;;5.43;2.45;;;;;;;10.33;nan;100697.06;6137323;23;20197;-85
2023/01/03 03:35:42;;;;;;;2.13;1.88;;;;;;;10.34;nan;100692.66;6139396;23;20846;-86
2023/01/03 03:38:11;;;;;;;4.00;2.25;;;;;;;10.32;nan;100695.38;6140246;23;20824;-84
2023/01/03 03:46:36;;;;;;;4.03;2.03;;;;;;;10.13;nan;100687.44;5906443;23;5001537;-85
2023/01/03 03:52:01;;;;;;;2.28;2.08;;;;;;;10.08;nan;100681.53;6118528;23;20547;-84
2023/01/03 03:54:30;;;;;;;2.75;2.30;;;;;;;10.09;nan;100685.00;6118394;23;20487;-85
2023/01/03 03:57:06;;;;;;;3.55;2.38;;;;;;;10.11;nan;100683.16;6117503;23;20699;-85
2023/01/03 03:59:32;;;;;;;2.35;2.03;;;;;;;10.12;nan;100682.22;6118745;23;20263;-85
2023/01/03 04:02:02;;;;;;;2.25;2.05;;;;;;;10.12;nan;100687.47;6117719;23;20705;-85
2023/01/03 04:04:33;;;;;;;1.70;1.55;;;;;;;10.13;nan;100683.97;6116526;23;20235;-85
2023/01/03 04:07:01;;;;;;;7.00;3.15;;;;;;;10.14;nan;100685.66;6118061;23;20180;-85
2023/01/03 04:09:26;;;;;;;3.15;2.60;;;;;;;10.14;nan;100689.13;6118073;23;20182;-84
2023/01/03 04:11:52;;;;;;;3.13;2.25;;;;;;;10.13;nan;100684.81;6119028;23;20367;-85
2023/01/03 04:14:18;;;;;;;3.15;2.50;;;;;;;10.13;nan;100686.59;6118813;23;20483;-85
2023/01/03 04:16:44;;;;;;;3.57;2.20;;;;;;;10.10;nan;100684.06;6119746;23;20176;-84
2023/01/03 04:19:09;;;;;;;7.37;2.40;;;;;;;10.04;nan;100690.44;6118299;23;20197;-85
2023/01/03 04:21:35;;;;;;;2.77;2.13;;;;;;;10.01;nan;100687.13;6117765;23;20426;-85
2023/01/03 04:24:02;;;;;;;5.07;3.53;;;;;;;9.97;nan;100692.50;6103657;23;20259;-85
2023/01/03 04:26:27;;;;;;;5.32;3.50;;;;;;;9.92;nan;100683.97;6118163;23;20407;-85
2023/01/03 04:28:53;;;;;;;4.80;2.90;;;;;;;9.88;nan;100684.16;6117975;23;20473;-85
2023/01/03 04:31:18;;;;;;;4.10;3.53;;;;;;;9.87;nan;100696.44;6117312;23;20204;-85
2023/01/03 04:33:44;;;;;;;3.93;3.10;;;;;;;9.88;nan;100695.53;6117730;23;20164;-85
2023/01/03 04:36:09;;;;;;;5.73;4.40;;;;;;;9.92;nan;100707.59;6126072;23;20164;-85
2023/01/03 04:38:34;;;;;;;4.70;3.53;;;;;;;9.94;nan;100697.03;6117307;23;20158;-85
2023/01/03 04:41:06;;;;;;;2.93;2.63;;;;;;;9.96;nan;100706.56;6124134;23;20507;-85
2023/01/03 04:46:15;;;;;;;4.28;2.30;;;;;;;9.95;nan;100699.59;6117749;23;20173;-84
2023/01/03 04:48:40;;;;;;;6.10;2.50;;;;;;;9.94;nan;100694.41;6117823;23;20156;-85
2023/01/03 04:51:06;;;;;;;3.60;2.27;;;;;;;9.94;nan;100694.41;6117984;23;20181;-85
2023/01/03 04:53:31;;;;;;;3.27;2.30;;;;;;;9.96;nan;100696.06;6118086;23;20264;-85
2023/01/03 04:55:56;;;;;;;2.40;2.20;;;;;;;9.97;nan;100694.28;6117075;23;20741;-85
2023/01/03 04:58:23;;;;;;;2.97;1.70;;;;;;;9.98;nan;100703.84;6117677;23;20165;-85
2023/01/03 05:00:48;;;;;;;7.55;2.50;;;;;;;10.01;nan;100708.13;6117402;23;20168;-84
2023/01/03 05:03:14;;;;;;;2.90;2.17;;;;;;;10.01;nan;100708.13;6117585;23;20219;-85
2023/01/03 05:05:40;;;;;;;3.13;2.10;;;;;;;10.00;nan;100711.66;6117242;23;20549;-85
2023/01/03 05:08:09;;;;;;;3.10;2.23;;;;;;;10.00;nan;100716.91;6117990;23;20262;-85
2023/01/03 05:10:37;;;;;;;2.90;2.60;;;;;;;9.99;nan;100716.06;6116663;23;20202;-85
2023/01/03 05:13:03;;;;;;;2.63;2.00;;;;;;;10.00;nan;100722.16;6116222;23;20289;-85
2023/01/03 05:15:30;;;;;;;4.00;3.13;;;;;;;10.00;nan;100711.66;6124035;23;20244;-85
2023/01/03 05:17:56;;;;;;;3.45;1.90;;;;;;;9.97;nan;100717.91;6115717;23;20184;-85
2023/01/03 05:25:56;;;;;;;2.85;2.60;;;;;;;9.86;nan;100707.03;6119673;23;20180;-85
2023/01/03 05:28:22;;;;;;;2.30;2.08;;;;;;;9.83;nan;100713.25;6119373;23;20492;-85
2023/01/03 05:30:48;;;;;;;2.50;2.25;;;;;;;9.78;nan;100712.59;6118875;23;20265;-85
2023/01/03 05:33:13;;;;;;;2.70;2.17;;;;;;;9.74;nan;100724.13;6119780;23;20854;-85
2023/01/03 05:35:39;;;;;;;2.53;2.03;;;;;;;9.74;nan;100722.34;6118742;23;20198;-85
2023/01/03 05:38:04;;;;;;;3.47;2.20;;;;;;;9.73;nan;100735.53;6119949;23;20250;-86
2023/01/03 05:40:30;;;;;;;2.70;1.80;;;;;;;9.73;nan;100738.16;6119768;23;20654;-86
2023/01/03 05:42:55;;;;;;;5.03;3.43;;;;;;;9.70;nan;100741.78;6118786;23;20545;-86
2023/01/03 05:45:24;;;;;;;1.93;1.60;;;;;;;9.63;nan;100739.47;6119351;23;20179;-86
2023/01/03 05:47:51;;;;;;;1.98;1.77;;;;;;;9.52;nan;100739.91;6120107;23;20156;-86
2023/01/03 05:50:16;;;;;;;2.65;2.10;;;;;;;9.45;nan;100741.94;6121563;23;20638;-86
2023/01/03 05:52:42;;;;;;;2.80;2.20;;;;;;;9.38;nan;100739.63;6119405;23;20291;-86
2023/01/03 05:55:08;;;;;;;2.60;1.80;;;;;;;9.32;nan;100730.25;6129509;23;20476;-86
2023/01/03 05:57:33;;;;;;;2.07;1.80;;;;;;;9.26;nan;100735.72;6119203;23;20443;-86
2023/01/03 05:59:58;;;;;;;2.00;1.80;;;;;;;9.22;nan;100739.38;6118931;23;20605;-86
2023/01/03 06:02:24;;;;;;;2.13;1.70;;;;;;;9.19;nan;100747.38;6119588;23;20184;-86
2023/01/03 06:04:49;;;;;;;2.20;2.00;;;;;;;9.17;nan;100742.19;6118914;23;20172;-86
2023/01/03 06:07:14;;;;;;;2.90;2.20;;;;;;;9.15;nan;100738.75;6118881;23;20207;-86
2023/01/03 06:09:40;;;;;;;3.37;2.37;;;;;;;9.15;nan;100740.53;6119068;23;20246;-86
2023/01/03 06:12:06;;;;;;;5.50;2.80;;;;;;;9.13;nan;100750.22;6119560;23;20208;-86
2023/01/03 06:14:31;;;;;;;3.20;2.50;;;;;;;9.13;nan;100760.69;6119428;23;20559;-86
2023/01/03 06:19:40;;;;;;;3.90;3.40;;;;;;;9.09;nan;100763.44;6118551;23;20180;-86
2023/01/03 06:22:06;;;;;;;2.50;2.30;;;;;;;9.08;nan;100766.13;6119564;23;20287;-86
2023/01/03 06:24:31;;;;;;;2.70;2.50;;;;;;;9.07;nan;100772.28;6119114;23;20186;-86
2023/01/03 06:26:56;;;;;;;2.87;2.53;;;;;;;9.05;nan;100782.84;6118389;23;20171;-86
2023/01/03 06:29:22;;;;;;;5.17;3.13;;;;;;;9.05;nan;100776.75;6118779;23;20253;-86
2023/01/03 06:31:47;;;;;;;3.30;2.57;;;;;;;9.02;nan;100775.09;6118540;23;20202;-86
2023/01/03 06:34:13;;;;;;;3.20;2.70;;;;;;;8.96;nan;100775.31;6118572;23;20519;-86
2023/01/03 06:36:39;;;;;;;4.73;2.60;;;;;;;8.89;nan;100768.63;6117670;23;20412;-86
2023/01/03 06:39:04;;;;;;;2.80;2.53;;;;;;;8.83;nan;100769.72;6126795;23;20396;-86
2023/01/03 06:41:29;;;;;;;3.80;2.47;;;;;;;8.83;nan;100776.69;6118344;23;20211;-86
2023/01/03 06:43:55;;;;;;;4.73;3.50;;;;;;;8.85;nan;100777.50;6118777;23;20164;-86
2023/01/03 06:54:36;;;;;;;4.30;3.00;;;;;;;8.86;nan;100782.69;6148822;23;20163;-86
2023/01/03 06:57:02;;;;;;;3.50;3.20;;;;;;;8.87;nan;100778.28;6145867;23;20153;-86
2023/01/03 06:59:28;;;;;;;3.70;2.35;;;;;;;8.86;nan;100789.69;6148916;23;20261;-86
2023/01/03 07:01:54;;;;;;;2.33;1.53;;;;;;;8.83;nan;100790.66;6148632;23;20746;-86
2023/01/03 07:04:21;;;;;;;1.98;1.55;;;;;;;8.79;nan;100791.69;6160185;23;20163;-85
2023/01/03 07:06:47;;;;;;;1.75;1.30;;;;;;;8.75;nan;100797.97;6162222;23;20161;-86
2023/01/03 07:09:13;;;;;;;2.07;1.90;;;;;;;8.71;nan;100795.50;6161219;23;20159;-86
2023/01/03 07:11:39;;;;;;;2.40;2.10;;;;;;;8.67;nan;100792.16;6157864;23;20352;-86
2023/01/03 07:14:06;;;;;;;2.85;1.67;;;;;;;8.63;nan;100786.16;6122328;23;20198;-86
2023/01/03 07:16:35;;;;;;;3.00;2.00;;;;;;;8.59;nan;100781.09;6149652;23;20207;-86
2023/01/03 07:19:01;;;;;;;4.20;2.78;;;;;;;8.57;nan;100785.53;6148483;23;20531;-86
2023/01/03 07:21:32;;;;;;;2.97;2.67;;;;;;;8.58;nan;100789.84;6171895;23;20386;-86
2023/01/03 07:24:02;;;;;;;2.97;2.53;;;;;;;8.60;nan;100794.13;6147352;23;20629;-86
2023/01/03 07:26:29;;;;;;;2.83;2.15;;;;;;;8.61;nan;100801.09;6147787;23;20246;-86
2023/01/03 07:28:56;;;;;;;4.75;2.60;;;;;;;8.62;nan;100807.19;6147513;23;20647;-86
2023/01/03 07:31:22;;;;;;;2.50;2.28;;;;;;;8.61;nan;100803.72;6148414;23;20207;-86
2023/01/03 07:33:47;;;;;;;4.35;3.05;;;;;;;8.61;nan;100803.72;6121240;23;20445;-86
2023/01/03 07:36:14;;;;;;;4.50;2.37;;;;;;;8.58;nan;100801.16;6148327;23;20171;-86
2023/01/03 07:38:42;;;;;;;2.60;2.40;;;;;;;8.55;nan;100800.44;6147073;23;20262;-86
2023/01/03 07:41:08;;;;;;;3.97;3.60;;;;;;;8.55;nan;100801.28;6148092;23;20495;-86
2023/01/03 07:43:38;;;;;;;5.55;4.38;;;;;;;8.56;nan;100799.50;6145906;23;20225;-85
2023/01/03 07:46:04;;;;;;;5.10;4.55;;;;;;;8.59;nan;100805.53;6147756;23;20254;-86
2023/01/03 07:48:29;;;;;;;6.60;5.22;;;;;;;8.63;nan;100799.25;6148230;23;20175;-85
2023/01/03 07:50:56;;;;;;;5.90;4.80;;;;;;;8.64;nan;100795.72;6146961;23;20789;-86
2023/01/03 07:53:22;;;;;;;8.60;6.10;;;;;;;8.68;nan;100801.69;6147582;23;20234;-86
2023/01/03 07:55:47;;;;;;;5.27;4.77;;;;;;;8.71;nan;100809.44;6147614;23;20245;-86
2023/01/03 07:58:13;;;;;;;7.73;4.50;;;;;;;8.75;nan;100813.69;6148098;23;20246;-86
2023/01/03 08:00:40;;;;;;;4.68;4.22;;;;;;;8.80;nan;100814.38;6147736;23;20242;-86
2023/01/03 08:03:06;;;;;;;4.80;3.92;;;;;;;8.85;nan;100820.25;6148104;23;20167;-86
2023/01/03 08:05:34;;;;;;;11.97;6.53;;;;;;;8.90;nan;100816.63;6152230;23;20202;-86
2023/01/03 08:08:01;;;;;;;4.78;4.30;;;;;;;8.95;nan;100815.53;6149470;23;20185;-86
2023/01/03 08:13:16;;;;;;;4.65;4.25;;;;;;;9.04;nan;100820.44;6147934;23;20198;-85
2023/01/03 08:15:43;;;;;;;4.72;4.18;;;;;;;9.08;nan;100832.50;6148147;23;20226;-86
2023/01/03 08:18:08;;;;;;;4.22;3.75;;;;;;;9.12;nan;100832.41;6122149;23;20708;-86
2023/01/03 08:20:34;;;;;;;6.70;4.20;;;;;;;9.11;nan;100831.56;6148834;23;20731;-85
2023/01/03 08:22:59;;;;;;;4.87;4.37;;;;;;;9.12;nan;100837.63;6148057;23;20175;-85
2023/01/03 08:25:25;;;;;;;2.63;2.50;;;;;;;9.10;nan;100837.72;6148659;23;20602;-86
2023/01/03 08:27:50;;;;;;;3.73;3.43;;;;;;;9.09;nan;100839.44;6147837;23;20254;-86
2023/01/03 08:30:16;;;;;;;3.50;3.20;;;;;;;9.11;nan;100842.03;6147236;23;20209;-86
2023/01/03 08:32:41;;;;;;;3.37;3.07;;;;;;;9.14;nan;100835.81;6121088;23;20225;-86
2023/01/03 08:35:07;;;;;;;4.93;4.20;;;;;;;9.19;nan;100837.34;6146085;23;20435;-85
2023/01/03 08:37:33;;;;;;;5.55;5.00;;;;;;;9.22;nan;100849.50;6147450;23;20175;-86
2023/01/03 08:40:02;;;;;;;6.20;4.73;;;;;;;9.23;nan;100840.69;6147208;23;20261;-86
2023/01/03 08:42:28;;;;;;;3.65;3.35;;;;;;;9.24;nan;100837.19;6147670;23;20309;-86
2023/01/03 08:45:01;;;;;;;5.75;4.82;;;;;;;9.23;nan;100836.31;6147229;23;20183;-85
2023/01/03 08:47:27;;;;;;;9.40;6.00;;;;;;;9.22;nan;100849.50;6147183;23;20211;-86
2023/01/03 08:49:54;;;;;;;7.78;5.93;;;;;;;9.20;nan;100848.69;6146856;23;20186;-85
2023/01/03 08:52:20;;;;;;;8.00;6.68;;;;;;;9.20;nan;100848.69;6120955;23;20711;-84
2023/01/03 08:54:45;;;;;;;10.30;6.40;;;;;;;9.22;nan;100849.50;6147213;23;20175;-86
2023/01/03 08:57:10;;;;;;;7.23;4.90;;;;;;;9.23;nan;100856.44;6147609;23;20175;-86
2023/01/03 08:59:36;;;;;;;5.63;5.13;;;;;;;9.24;nan;100860.78;6121384;23;20179;-85
2023/01/03 09:02:01;;;;;;;5.17;4.00;;;;;;;9.27;nan;100863.28;6149237;23;20689;-86
2023/01/03 09:04:27;;;;;;;4.17;3.67;;;;;;;9.31;nan;100872.72;6149411;23;20179;-86
2023/01/03 09:06:52;;;;;;;4.87;4.47;;;;;;;9.35;nan;100874.34;6157469;23;20397;-84
2023/01/03 09:09:18;;;;;;;8.90;4.83;;;;;;;9.37;nan;100869.00;6148891;23;20197;-86
2023/01/03 09:11:43;;;;;;;6.20;4.90;;;;;;;9.38;nan;100871.59;6149442;23;20194;-86
2023/01/03 09:14:08;;;;;;;4.97;4.43;;;;;;;9.39;nan;100865.41;6149769;23;20186;-85
2023/01/03 09:16:34;;;;;;;7.77;5.50;;;;;;;9.44;nan;100876.59;6148683;23;20569;-86
2023/01/03 09:19:01;;;;;;;8.70;6.60;;;;;;;9.50;nan;100879.00;6148557;23;20728;-86
2023/01/03 09:21:27;;;;;;;8.10;6.72;;;;;;;9.56;nan;100890.13;6148893;23;20195;-86
2023/01/03 09:23:53;;;;;;;7.70;6.05;;;;;;;9.60;nan;100891.75;6148925;23;20179;-86
2023/01/03 09:26:18;;;;;;;8.17;6.77;;;;;;;9.63;nan;100878.50;6148720;23;20686;-86
2023/01/03 09:28:44;;;;;;;8.50;6.97;;;;;;;9.65;nan;100889.78;6148887;23;20221;-85
2023/01/03 09:31:09;;;;;;;8.27;7.17;;;;;;;9.67;nan;100895.84;6148631;23;20234;-85
2023/01/03 09:33:34;;;;;;;9.80;6.40;;;;;;;9.69;nan;100896.59;6148480;23;20488;-86
2023/01/03 09:36:00;;;;;;;8.57;6.53;;;;;;;9.74;nan;100897.28;6122327;23;20258;-86
2023/01/03 09:38:25;;;;;;;10.07;7.53;;;;;;;9.80;nan;100894.41;6149565;23;20226;-86
2023/01/03 09:41:00;;;;;;;10.80;8.37;;;;;;;9.83;nan;100896.06;6127174;23;20195;-85
2023/01/03 09:43:35;;;;;;;11.43;10.15;;;;;;;9.86;nan;100896.81;6150171;23;20465;-86
2023/01/03 09:46:01;;;;;;;12.23;8.55;;;;;;;9.90;nan;100895.75;6148869;23;20178;-85
2023/01/03 09:48:37;;;;;;;9.75;8.77;;;;;;;9.94;nan;100902.59;6150107;23;20631;-85
2023/01/03 10:03:42;;;;;;;11.10;8.32;;;;;;;10.03;nan;100908.41;6149202;23;20276;-85
2023/01/03 10:05:14;;;;;;;8.48;5.97;;;;;;;11.01;nan;100906.88;6148762;23;20175;-85
2023/01/03 10:07:59;;;;;;;9.15;6.88;;;;;;;11.24;nan;100906.69;6122271;23;20198;-85
2023/01/03 10:10:46;;;;;;;6.55;5.85;;;;;;;11.38;nan;100911.31;6148934;23;20273;-86
2023/01/03 10:13:21;;;;;;;6.85;5.00;;;;;;;11.48;nan;100911.75;6149041;23;20203;-85
2023/01/03 10:16:10;;;;;;;6.60;5.85;;;;;;;11.66;nan;100905.59;6148616;23;20189;-86
2023/01/03 10:19:22;;;;;;;6.10;5.15;;;;;;;11.93;nan;100898.19;6148276;23;20182;-86
2023/01/03 10:21:55;;;;;;;6.43;5.85;;;;;;;12.30;nan;100900.81;6057576;23;20200;-85
2023/01/03 10:24:28;;;;;;;7.65;6.40;;;;;;;12.60;nan;100896.59;6107905;23;20179;-86
2023/01/03 10:27:02;;;;;;;8.20;7.35;;;;;;;12.75;nan;100907.31;6148538;23;20179;-86
2023/01/03 10:29:27;;;;;;;11.07;8.02;;;;;;;12.69;nan;100892.66;6148740;23;20190;-86
2023/01/03 10:32:12;;;;;;;11.70;8.77;;;;;;;12.62;nan;100897.38;6148287;23;20198;-86
2023/01/03 10:34:37;;;;;;;11.82;9.52;;;;;;;12.41;nan;100898.50;6145054;23;20455;-86
2023/01/03 10:37:16;;;;;;;9.07;7.23;;;;;;;12.16;nan;100894.44;6148458;23;20194;-86
2023/01/03 10:39:41;;;;;;;9.07;7.55;;;;;;;11.99;nan;100891.81;6093818;23;20215;-86
2023/01/03 10:42:07;;;;;;;9.40;7.47;;;;;;;11.85;nan;100883.69;6066434;23;20247;-84
2023/01/03 10:44:33;;;;;;;7.57;6.75;;;;;;;11.78;nan;100891.03;6089822;23;20172;-85
2023/01/03 10:47:08;;;;;;;7.27;6.60;;;;;;;11.73;nan;100890.41;6111649;23;20186;-86
2023/01/03 10:49:34;;;;;;;8.60;7.40;;;;;;;11.68;nan;100887.97;6089488;23;20168;-86
2023/01/03 10:52:10;;;;;;;9.77;6.40;;;;;;;11.60;nan;100884.84;6088667;23;20687;-86
2023/01/03 10:54:42;;;;;;;10.18;5.82;;;;;;;11.56;nan;100888.56;6090045;23;20181;-86
2023/01/03 10:57:42;;;;;;;6.45;5.63;;;;;;;11.54;nan;100894.84;6088953;23;20185;-85
2023/01/03 11:00:28;;;;;;;6.90;5.72;;;;;;;11.46;nan;100893.41;6090186;23;20181;-85
2023/01/03 11:03:01;;;;;;;6.07;5.00;;;;;;;11.41;nan;100889.28;6090114;23;20172;-86
2023/01/03 11:05:27;;;;;;;6.90;5.78;;;;;;;11.35;nan;100879.06;6089065;23;20217;-86
2023/01/03 11:08:00;;;;;;;6.30;5.77;;;;;;;11.30;nan;100881.88;6090680;23;20183;-86
2023/01/03 11:10:52;;;;;;;7.60;6.20;;;;;;;11.31;nan;100878.31;6091005;23;20240;-85
2023/01/03 11:13:37;;;;;;;6.13;5.53;;;;;;;11.29;nan;100877.56;6089754;23;20203;-85
2023/01/03 11:16:12;;;;;;;6.60;5.82;;;;;;;11.24;nan;100877.75;6090812;23;20508;-85
2023/01/03 11:18:41;;;;;;;5.80;5.28;;;;;;;11.26;nan;100875.06;6088218;23;20183;-86
2023/01/03 11:21:22;;;;;;;5.70;5.07;;;;;;;11.29;nan;100882.81;6090086;23;20257;-85
2023/01/03 11:24:18;;;;;;;5.90;5.40;;;;;;;11.38;nan;100882.38;6090428;23;20217;-85
2023/01/03 11:27:21;;;;;;;6.63;5.10;;;;;;;11.43;nan;100880.41;6089913;23;20175;-85
2023/01/03 11:30:07;;;;;;;4.93;4.05;;;;;;;11.46;nan;100876.78;6090104;23;20254;-85
2023/01/03 11:32:52;;;;;;;7.72;4.03;;;;;;;11.48;nan;100867.88;6089754;23;20196;-85
2023/01/03 11:35:32;;;;;;;5.50;5.00;;;;;;;11.58;nan;100865.66;6088490;23;20432;-86
2023/01/03 11:38:24;;;;;;;5.32;4.82;;;;;;;11.63;nan;100868.06;6089947;23;20254;-85
2023/01/03 11:40:56;;;;;;;6.22;4.40;;;;;;;11.66;nan;100866.13;6089418;23;20396;-85
2023/01/03 11:43:44;;;;;;;4.95;4.25;;;;;;;11.69;nan;100862.50;6116040;23;20207;-85
2023/01/03 11:46:47;;;;;;;4.47;3.75;;;;;;;11.69;nan;100859.88;6119528;23;20252;-85
2023/01/03 11:49:23;;;;;;;4.95;4.10;;;;;;;11.71;nan;100852.75;6119490;23;20220;-85
2023/01/03 11:52:39;;;;;;;4.95;4.13;;;;;;;11.75;nan;100851.69;6118981;23;20207;-86
2023/01/03 11:55:26;;;;;;;4.93;4.25;;;;;;;11.78;nan;100855.97;6000915;23;20237;-85
2023/01/03 11:58:14;;;;;;;5.10;3.55;;;;;;;11.80;nan;100847.06;6111333;23;20690;-86
2023/01/03 12:01:03;;;;;;;3.25;2.95;;;;;;;11.84;nan;100848.59;6119181;23;20254;-85
2023/01/03 12:03:51;;;;;;;4.20;3.00;;;;;;;11.87;nan;100837.09;6119459;23;20222;-85
2023/01/03 12:06:33;;;;;;;3.75;2.72;;;;;;;11.89;nan;100844.00;6118662;23;20183;-85
2023/01/03 12:09:26;;;;;;;2.92;2.67;;;;;;;11.89;nan;100841.38;6119212;23;20213;-86
2023/01/03 12:12:10;;;;;;;3.22;2.38;;;;;;;11.90;nan;100840.44;6118690;23;20290;-86
2023/01/03 12:14:50;;;;;;;6.38;4.25;;;;;;;11.90;nan;100836.94;6118975;23;20310;-86
2023/01/03 12:17:56;;;;;;;3.55;2.85;;;;;;;11.85;nan;100836.28;6118497;23;20461;-86
2023/01/03 12:20:37;;;;;;;5.43;2.85;;;;;;;11.84;nan;100840.72;6118029;23;20206;-86
2023/01/03 12:23:31;;;;;;;3.80;3.25;;;;;;;11.85;nan;100834.50;6119372;23;20282;-86
2023/01/03 12:26:02;;;;;;;5.05;3.30;;;;;;;11.79;nan;100847.13;6117863;23;20171;-86
2023/01/03 12:29:10;;;;;;;4.18;3.17;;;;;;;11.74;nan;100844.72;6118843;23;20254;-86
2023/01/03 12:31:45;;;;;;;3.05;2.80;;;;;;;11.67;nan;100844.16;6119183;23;20183;-85
2023/01/03 12:34:45;;;;;;;3.30;3.00;;;;;;;11.64;nan;100844.31;6133802;23;20430;-86
2023/01/03 12:37:16;;;;;;;3.92;3.53;;;;;;;11.66;nan;100844.22;6134379;23;20210;-86
2023/01/03 12:39:46;;;;;;;4.68;3.78;;;;;;;11.72;nan;100838.69;6133970;23;20182;-86
2023/01/03 12:42:39;;;;;;;4.13;3.45;;;;;;;11.77;nan;100833.19;6108560;23;20653;-86
2023/01/03 12:45:11;;;;;;;3.67;2.63;;;;;;;11.80;nan;100823.38;6133057;23;20198;-85
2023/01/03 12:48:01;;;;;;;5.30;3.97;;;;;;;11.89;nan;100822.09;6134933;23;20397;-86
2023/01/03 12:50:37;;;;;;;4.18;2.83;;;;;;;11.90;nan;100818.53;6135984;23;20180;-85
2023/01/03 12:53:17;;;;;;;3.35;3.05;;;;;;;11.88;nan;100818.63;6134861;23;20297;-85
2023/01/03 12:56:10;;;;;;;6.25;3.10;;;;;;;11.94;nan;100815.66;6131702;23;20250;-86
2023/01/03 12:58:50;;;;;;;2.65;2.42;;;;;;;11.97;nan;100812.03;6118416;23;20203;-85
2023/01/03 13:01:45;;;;;;;3.08;2.78;;;;;;;12.02;nan;100802.13;6118289;23;20677;-86
2023/01/03 13:04:22;;;;;;;4.28;2.50;;;;;;;12.03;nan;100801.19;6118423;23;20172;-86
2023/01/03 13:07:10;;;;;;;3.75;3.22;;;;;;;12.03;nan;100808.22;6118105;23;20178;-86
2023/01/03 13:09:40;;;;;;;3.97;3.10;;;;;;;12.05;nan;100801.97;6117477;23;20378;-86